Mohammedia, Morocco
Current Conditions -  °F | °C
As of 10:00 PM on Thursday 18 Dec 2014 (Local Time) from GMMB Reporting Station
Clear Clear  
Wind Chill: 54°   Ceiling: Unl
Heat Index: 54°   Visibility: NA
Dew Point: 54°   Wind: 6mph
Humidity: 100%   Direction: 70°ENE
Pressure: 30.39"   Gusts: NA
Location:  33.71°N, 7.39°W
Report Text: GMMB 182100Z AUTO 07005KT //// NCD 12/12 Q1029
Loading
Personal Weather Stations






























Interactive Weather Map New forecast layout! Learn more

10-Day Weather Forecast

Advertisements
Track Severe Weather on mobile